Time;durP1;ratioP1;P1;durP2;ratioP2;P2;SDS_P1;SDS_P2;PMS_P1;PMS_P2;Temp;Humidity;BMP_temperature;BMP_pressure;BME280_temperature;BME280_humidity;BME280_pressure;Samples;Min_cycle;Max_cycle;Signal;HPM_P1;HPM_P2
2022/01/21 05:11:45;;;;;;;4.95;2.55;;;;;;;-2.72;83.68;100761.03;5567104;32;186596;-84
2022/01/21 05:18:00;;;;;;;8.60;2.90;;;;;;;-2.81;83.89;100768.72;5553274;32;34016;-85
2022/01/21 05:21:05;;;;;;;3.37;2.45;;;;;;;-2.80;83.85;100770.47;5553144;32;33880;-85
2022/01/21 05:24:08;;;;;;;6.55;2.90;;;;;;;-2.78;83.88;100762.66;5553236;32;34308;-85
2022/01/21 05:27:13;;;;;;;4.80;2.78;;;;;;;-2.75;83.99;100767.91;5552806;32;33770;-84
2022/01/21 05:30:18;;;;;;;6.80;2.85;;;;;;;-2.73;83.83;100772.28;5551881;32;34068;-85
2022/01/21 05:33:21;;;;;;;4.78;2.70;;;;;;;-2.74;83.54;100773.13;5549560;32;34516;-84
2022/01/21 05:36:27;;;;;;;5.05;2.70;;;;;;;-2.76;83.49;100781.75;5551865;32;35014;-84
2022/01/21 05:39:30;;;;;;;7.65;2.67;;;;;;;-2.73;83.16;100784.38;5550760;32;34086;-85
2022/01/21 05:42:35;;;;;;;8.55;2.80;;;;;;;-2.67;82.82;100783.59;5553598;32;32994;-85
2022/01/21 05:49:03;;;;;;;5.00;2.80;;;;;;;-2.66;81.98;100794.00;5553420;32;34442;-84
2022/01/21 05:52:16;;;;;;;3.95;2.90;;;;;;;-2.70;81.96;100807.81;5551437;32;34381;-84
2022/01/21 05:55:19;;;;;;;4.47;2.50;;;;;;;-2.67;83.32;100826.00;5535162;32;33865;-85
2022/01/21 05:58:22;;;;;;;7.45;3.08;;;;;;;-1.06;80.83;100803.97;5537432;32;33997;-84
2022/01/21 06:01:25;;;;;;;5.50;2.58;;;;;;;-1.68;76.60;100820.94;5550615;32;34387;-84
2022/01/21 06:04:29;;;;;;;4.68;3.20;;;;;;;-2.33;79.45;100821.19;5550725;32;34850;-84
2022/01/21 06:07:31;;;;;;;6.37;3.05;;;;;;;-2.64;81.06;100838.16;5550322;32;33806;-84
2022/01/21 06:10:34;;;;;;;5.37;3.47;;;;;;;-2.74;81.69;100835.47;5542866;32;34513;-84
2022/01/21 06:13:38;;;;;;;6.25;2.87;;;;;;;-2.75;81.13;100843.22;5539987;32;34345;-84
2022/01/21 06:16:41;;;;;;;7.85;3.55;;;;;;;-2.85;81.63;100831.84;5546484;32;34932;-83
2022/01/21 06:19:44;;;;;;;5.00;2.60;;;;;;;-2.88;81.61;100861.25;5544513;32;33744;-85
2022/01/21 06:22:47;;;;;;;4.87;3.28;;;;;;;-2.93;81.87;100862.91;5535070;32;35223;-84
2022/01/21 06:25:49;;;;;;;5.87;3.15;;;;;;;-2.95;81.63;100874.09;5534528;32;35177;-85
2022/01/21 06:28:52;;;;;;;5.32;2.78;;;;;;;-2.96;82.26;100883.63;5543111;32;35151;-84
2022/01/21 06:31:55;;;;;;;4.72;2.47;;;;;;;-2.94;81.78;100892.31;5539295;32;35272;-84
2022/01/21 06:34:58;;;;;;;6.15;2.97;;;;;;;-2.94;81.03;100896.62;5529854;32;34729;-84
2022/01/21 06:38:04;;;;;;;5.85;3.00;;;;;;;-2.98;80.83;100895.72;5537547;32;34288;-84
2022/01/21 06:41:07;;;;;;;5.78;2.85;;;;;;;-3.03;81.12;100908.63;5536378;32;33710;-87
2022/01/21 06:44:10;;;;;;;4.70;2.53;;;;;;;-3.12;80.88;100908.50;5536909;32;34152;-89
2022/01/21 06:47:13;;;;;;;5.25;2.83;;;;;;;-3.12;80.62;100921.47;5534469;32;33547;-89
2022/01/21 06:50:16;;;;;;;6.15;3.17;;;;;;;-3.14;81.05;100924.03;5533977;32;34766;-89
2022/01/21 06:53:19;;;;;;;5.65;2.62;;;;;;;-3.12;80.80;100931.87;5519728;32;35091;-88
2022/01/21 06:56:21;;;;;;;4.32;2.47;;;;;;;-2.93;79.76;100940.78;5523028;32;33977;-85
2022/01/21 06:59:24;;;;;;;4.45;2.80;;;;;;;-2.90;79.79;100951.25;5536173;32;34173;-85
2022/01/21 07:02:27;;;;;;;7.40;3.03;;;;;;;-2.88;79.80;100954.72;5533149;32;35036;-85
2022/01/21 07:05:30;;;;;;;8.02;3.40;;;;;;;-3.09;80.70;100951.78;5525812;32;34311;-85
2022/01/21 07:08:34;;;;;;;4.03;2.42;;;;;;;-3.13;80.72;100967.31;5536876;32;34324;-85
2022/01/21 07:11:37;;;;;;;7.72;3.00;;;;;;;-3.03;80.61;100981.31;5526895;32;35867;-86
2022/01/21 07:14:40;;;;;;;4.47;2.80;;;;;;;-3.09;80.92;100975.13;5522085;32;33815;-85
2022/01/21 07:17:43;;;;;;;4.25;2.60;;;;;;;-3.01;80.66;100986.53;5536693;32;34199;-85
2022/01/21 07:20:46;;;;;;;7.90;2.72;;;;;;;-2.87;80.12;100994.56;5529201;32;34343;-86
2022/01/21 07:23:49;;;;;;;6.12;2.97;;;;;;;-3.01;80.47;100994.31;5531717;32;34103;-86
2022/01/21 07:26:51;;;;;;;6.60;3.47;;;;;;;-2.99;80.15;100996.09;5520626;32;34204;-85
2022/01/21 07:29:54;;;;;;;4.82;2.90;;;;;;;-3.00;79.81;100999.56;5518976;32;34736;-87
2022/01/21 07:32:57;;;;;;;10.27;3.03;;;;;;;-2.92;79.36;100996.19;5519246;32;34712;-87
2022/01/21 07:36:00;;;;;;;7.32;3.30;;;;;;;-2.82;79.06;100992.03;5531804;32;33805;-88
2022/01/21 07:39:04;;;;;;;9.65;3.83;;;;;;;-2.88;79.09;100995.38;5527034;32;34448;-88
2022/01/21 07:42:09;;;;;;;7.05;2.90;;;;;;;-2.65;77.15;101002.66;5528998;32;33938;-88
2022/01/21 07:45:11;;;;;;;4.82;2.95;;;;;;;-2.80;78.05;101009.38;5522947;32;34197;-89
2022/01/21 07:48:14;;;;;;;7.35;3.00;;;;;;;-2.83;78.20;101017.09;5525741;32;34581;-87
2022/01/21 07:51:17;;;;;;;3.90;2.35;;;;;;;-2.77;77.85;101004.22;5515256;32;34233;-88
2022/01/21 07:54:20;;;;;;;9.15;3.33;;;;;;;-2.71;77.63;100996.50;5515294;32;33821;-87
2022/01/21 07:57:23;;;;;;;6.93;3.10;;;;;;;-2.79;77.62;100999.84;5524256;32;34377;-87
2022/01/21 08:00:32;;;;;;;7.85;3.28;;;;;;;-2.68;77.29;100992.25;5532644;32;33738;-87
2022/01/21 08:03:35;;;;;;;9.00;3.25;;;;;;;-2.68;77.01;101000.88;5522822;32;34672;-86
2022/01/21 08:06:38;;;;;;;5.75;2.67;;;;;;;-2.81;77.19;100999.84;5523024;32;34480;-84
2022/01/21 08:09:41;;;;;;;4.57;2.92;;;;;;;-2.73;76.60;101008.62;5520926;32;35173;-85
2022/01/21 08:12:43;;;;;;;6.82;3.50;;;;;;;-2.77;76.70;101016.34;5522477;32;34334;-85
2022/01/21 08:15:46;;;;;;;7.37;3.45;;;;;;;-2.80;76.84;101017.16;5524658;32;34315;-86
2022/01/21 08:18:49;;;;;;;6.20;2.78;;;;;;;-2.81;76.86;101023.22;5533635;32;33538;-85
2022/01/21 08:21:52;;;;;;;4.47;2.33;;;;;;;-2.81;76.83;101019.72;5528040;32;34496;-88
2022/01/21 08:24:58;;;;;;;7.28;3.28;;;;;;;-2.74;77.14;101019.87;5523931;32;34726;-87
2022/01/21 08:28:01;;;;;;;4.78;2.85;;;;;;;-2.54;75.92;101028.78;5524464;32;33795;-87
2022/01/21 08:31:04;;;;;;;9.38;3.72;;;;;;;-2.52;75.62;101025.38;5527182;32;34682;-88
2022/01/21 08:34:07;;;;;;;5.55;3.00;;;;;;;-2.47;75.67;101033.25;5531873;32;34426;-87
2022/01/21 08:37:10;;;;;;;8.45;3.40;;;;;;;-2.35;74.33;101028.22;5529706;32;34055;-86
2022/01/21 08:40:13;;;;;;;7.78;2.80;;;;;;;-2.23;73.61;101026.63;5536694;32;34019;-86
2022/01/21 08:43:17;;;;;;;2.85;2.60;;;;;;;-2.18;72.54;101036.25;5521886;32;34055;-86
2022/01/21 08:46:22;;;;;;;6.80;3.12;;;;;;;-2.17;72.68;101035.38;5532813;32;34566;-86
2022/01/21 08:49:24;;;;;;;6.07;2.47;;;;;;;-2.10;71.86;101033.75;5520853;32;33612;-86
2022/01/21 08:52:29;;;;;;;3.87;2.47;;;;;;;-2.24;71.72;101040.47;5518247;32;35399;-86
2022/01/21 08:55:33;;;;;;;4.45;2.45;;;;;;;-2.17;71.55;101045.78;5519297;32;34687;-87
2022/01/21 08:58:36;;;;;;;7.03;3.03;;;;;;;-2.09;70.64;101064.09;5523529;32;34425;-87
2022/01/21 09:01:41;;;;;;;6.60;2.35;;;;;;;-1.77;69.50;101062.75;5537558;32;34589;-92
2022/01/21 09:04:44;;;;;;;3.65;2.50;;;;;;;-1.83;69.97;101083.47;5517859;32;34336;-90
2022/01/21 09:07:47;;;;;;;6.85;2.85;;;;;;;-1.70;69.76;101077.59;5527555;32;34998;-91
2022/01/21 09:10:50;;;;;;;10.55;2.80;;;;;;;-1.55;69.37;101105.50;5535609;32;33877;-87
2022/01/21 09:13:54;;;;;;;7.03;2.28;;;;;;;-1.54;67.68;101091.69;5530774;32;34454;-87
2022/01/21 09:16:57;;;;;;;4.78;2.00;;;;;;;-1.52;67.61;101084.75;5515854;32;35267;-86
2022/01/21 09:20:00;;;;;;;4.47;2.25;;;;;;;-0.96;66.65;101079.22;5518765;32;35106;-87
2022/01/21 09:23:05;;;;;;;3.62;1.67;;;;;;;-0.58;62.45;101088.25;5533498;32;33933;-88
2022/01/21 09:26:09;;;;;;;5.60;1.92;;;;;;;-0.49;59.23;101085.72;5526577;32;33903;-87
2022/01/21 09:29:12;;;;;;;4.15;1.92;;;;;;;0.02;58.35;101072.13;5512227;32;35334;-84
2022/01/21 09:32:15;;;;;;;5.37;1.80;;;;;;;0.67;55.47;101069.75;5516793;32;33634;-85
2022/01/21 09:35:19;;;;;;;4.95;1.87;;;;;;;1.31;51.54;101056.75;5531996;32;34191;-84
2022/01/21 09:38:22;;;;;;;3.55;1.75;;;;;;;2.55;48.52;101054.66;5533650;32;34230;-84
2022/01/21 09:41:25;;;;;;;2.58;1.33;;;;;;;4.89;43.75;101060.19;5535583;32;34682;-84
2022/01/21 09:44:30;;;;;;;4.40;1.92;;;;;;;5.70;40.78;101053.59;5535202;32;33917;-85
2022/01/21 09:47:44;;;;;;;2.92;1.73;;;;;;;5.39;39.91;101060.28;5537751;32;35225;-85
2022/01/21 09:50:49;;;;;;;4.12;2.05;;;;;;;4.58;42.18;101062.34;5526705;32;34329;-85
2022/01/21 09:53:51;;;;;;;4.07;2.10;;;;;;;3.27;44.85;101062.91;5539560;32;34001;-84
2022/01/21 09:56:56;;;;;;;5.97;1.90;;;;;;;3.41;46.45;101060.16;5541292;32;34238;-85
2022/01/21 10:00:00;;;;;;;8.18;2.22;;;;;;;4.97;44.17;101053.03;5545467;32;35119;-85
2022/01/21 10:03:03;;;;;;;5.85;1.80;;;;;;;5.03;42.01;101052.09;5544445;32;34975;-85
2022/01/21 10:06:07;;;;;;;3.62;2.03;;;;;;;2.48;49.25;101059.06;5534241;32;34403;-85
2022/01/21 10:09:11;;;;;;;3.22;1.55;;;;;;;2.52;49.30;101057.31;5540047;32;34387;-84
2022/01/21 10:12:17;;;;;;;4.93;1.92;;;;;;;2.23;51.68;101058.31;5542462;32;33900;-83
2022/01/21 10:15:19;;;;;;;4.53;1.95;;;;;;;3.17;58.67;101038.50;5530217;32;33985;-84
2022/01/21 10:18:23;;;;;;;3.30;2.17;;;;;;;2.41;51.52;101049.47;5525595;32;33796;-84
2022/01/21 10:21:31;;;;;;;8.50;2.83;;;;;;;1.82;53.53;101037.50;5534780;32;33722;-84
2022/01/21 10:24:36;;;;;;;6.68;2.90;;;;;;;0.96;56.82;101026.28;5546024;32;34818;-84
2022/01/21 10:27:39;;;;;;;8.82;2.62;;;;;;;0.17;59.25;101029.59;5546029;32;34305;-83
2022/01/21 10:30:44;;;;;;;4.45;2.50;;;;;;;-0.42;60.99;101018.84;5543182;32;34645;-84
2022/01/21 10:33:51;;;;;;;8.23;2.83;;;;;;;-0.65;63.28;101019.59;5541117;32;34366;-83
2022/01/21 10:37:03;;;;;;;6.75;3.00;;;;;;;-0.84;65.27;101015.97;5540894;32;35850;-85
2022/01/21 10:40:25;;;;;;;5.40;3.00;;;;;;;-0.84;65.42;101035.06;5535687;32;34602;-84
2022/01/21 10:43:36;;;;;;;6.05;2.92;;;;;;;-0.39;64.77;101038.84;5543698;32;34703;-84
2022/01/21 10:46:41;;;;;;;4.70;2.58;;;;;;;0.18;63.62;101040.87;5542308;32;34850;-84
2022/01/21 10:50:07;;;;;;;10.05;2.80;;;;;;;0.38;62.87;101046.19;5533900;32;34213;-84
2022/01/21 10:53:29;;;;;;;6.10;3.60;;;;;;;0.07;64.00;101046.06;5536601;32;34269;-84
2022/01/21 10:56:32;;;;;;;5.82;3.55;;;;;;;-0.10;64.36;101065.09;5539600;32;33959;-84
2022/01/21 11:00:08;;;;;;;9.20;3.78;;;;;;;-0.29;64.73;101061.53;5535064;32;34872;-84
2022/01/21 11:03:15;;;;;;;7.45;3.60;;;;;;;-0.20;65.05;101078.97;5525974;32;34181;-84
2022/01/21 11:06:22;;;;;;;10.07;4.18;;;;;;;-0.25;65.07;101086.72;5521479;32;34633;-84
2022/01/21 11:09:29;;;;;;;6.65;3.47;;;;;;;-0.22;64.88;101091.09;5523011;32;34246;-85
2022/01/21 11:12:32;;;;;;;9.95;3.78;;;;;;;-0.46;65.03;101082.28;5526122;32;34197;-84
2022/01/21 11:15:43;;;;;;;5.70;3.15;;;;;;;-0.45;65.72;101081.41;5526008;32;34121;-84
2022/01/21 11:18:51;;;;;;;6.77;3.67;;;;;;;-0.53;65.81;101073.53;5522905;32;34239;-84
2022/01/21 11:21:56;;;;;;;5.90;3.70;;;;;;;-0.24;65.25;101058.94;5524622;32;35045;-84
2022/01/21 11:24:59;;;;;;;7.87;3.75;;;;;;;-0.32;64.94;101057.16;5524018;32;34649;-85
2022/01/21 11:28:02;;;;;;;7.85;3.67;;;;;;;-0.31;65.44;101039.75;5519991;32;34860;-84
2022/01/21 11:31:06;;;;;;;6.78;3.47;;;;;;;-0.15;65.44;101028.56;5521688;32;34403;-87
2022/01/21 11:34:10;;;;;;;7.85;3.40;;;;;;;-0.41;65.42;101010.16;5526201;32;35076;-89
2022/01/21 11:37:13;;;;;;;11.52;3.58;;;;;;;-0.27;66.00;101015.47;5526827;32;33982;-90
2022/01/21 11:40:16;;;;;;;8.60;3.22;;;;;;;0.09;66.56;101013.00;5531910;32;34083;-91
2022/01/21 11:43:19;;;;;;;8.82;3.40;;;;;;;0.36;63.45;101001.78;5518800;32;34159;-85
2022/01/21 11:49:41;;;;;;;17.43;3.90;;;;;;;1.02;59.93;100984.47;5533994;32;34367;-84
2022/01/21 11:52:45;;;;;;;10.80;3.75;;;;;;;0.44;62.87;100987.91;5532771;32;33637;-85
2022/01/21 11:55:47;;;;;;;5.35;3.00;;;;;;;0.12;62.84;100982.59;5531691;32;33982;-86
2022/01/21 11:59:09;;;;;;;7.62;3.20;;;;;;;0.17;63.23;100971.28;5525434;32;34065;-86
2022/01/21 12:02:18;;;;;;;4.00;2.72;;;;;;;0.34;63.31;100966.09;5533256;32;35349;-86
2022/01/21 12:05:26;;;;;;;5.43;3.00;;;;;;;0.20;63.14;100959.13;5536270;32;34745;-86
2022/01/21 12:08:49;;;;;;;9.43;3.03;;;;;;;0.12;63.28;100948.69;5532602;32;34050;-86
2022/01/21 12:11:56;;;;;;;5.45;2.92;;;;;;;0.48;62.37;100951.38;5533268;32;33945;-86
2022/01/21 12:15:03;;;;;;;10.98;3.00;;;;;;;0.16;62.04;100951.28;5531635;32;33848;-85
2022/01/21 12:18:41;;;;;;;4.62;2.55;;;;;;;0.39;62.23;100940.88;5532612;32;35003;-85
2022/01/21 12:21:43;;;;;;;11.77;3.45;;;;;;;0.70;61.73;100934.84;5530691;32;34142;-85
2022/01/21 12:25:04;;;;;;;7.87;3.15;;;;;;;0.64;61.02;100949.63;5532936;32;34654;-85
2022/01/21 12:28:20;;;;;;;5.57;2.80;;;;;;;0.55;61.87;100951.38;5526650;32;34169;-84
2022/01/21 12:31:31;;;;;;;7.45;3.25;;;;;;;0.38;62.06;100953.09;5532251;32;33736;-84
2022/01/21 12:34:55;;;;;;;7.55;3.42;;;;;;;0.50;62.24;100960.06;5529740;32;34308;-86
2022/01/21 12:41:34;;;;;;;6.32;2.45;;;;;;;0.11;61.92;100959.97;5534260;32;34956;-86
2022/01/21 12:44:38;;;;;;;4.43;2.47;;;;;;;0.24;62.16;100963.50;5533925;32;34434;-86
2022/01/21 12:47:46;;;;;;;9.27;3.15;;;;;;;0.24;61.62;100973.94;5534284;32;33797;-86
2022/01/21 12:50:57;;;;;;;6.53;2.65;;;;;;;0.38;61.29;100966.13;5525978;32;33842;-86
2022/01/21 12:57:31;;;;;;;8.63;2.85;;;;;;;0.30;62.35;100959.16;5525290;32;35269;-86
2022/01/21 13:00:37;;;;;;;8.45;2.47;;;;;;;0.51;61.71;100974.00;5522384;32;34988;-86
2022/01/21 13:03:49;;;;;;;6.50;2.40;;;;;;;0.39;59.77;100983.53;5533975;32;34109;-86
2022/01/21 13:07:13;;;;;;;6.72;2.33;;;;;;;0.21;58.49;100984.34;5540379;32;34373;-91
2022/01/21 13:10:24;;;;;;;9.35;2.55;;;;;;;0.18;58.52;100975.63;5549254;32;34829;-87
2022/01/21 13:13:49;;;;;;;6.78;2.30;;;;;;;0.18;58.57;100978.25;5556248;32;34612;-86
2022/01/21 13:17:06;;;;;;;3.80;2.12;;;;;;;0.16;58.41;100980.00;5554687;32;33874;-86
2022/01/21 13:20:09;;;;;;;5.78;2.22;;;;;;;-0.02;58.27;100966.00;5545132;32;34299;-86
2022/01/21 13:23:32;;;;;;;10.05;2.37;;;;;;;0.21;57.97;100962.63;5539871;32;34576;-85
2022/01/21 13:26:37;;;;;;;5.37;2.20;;;;;;;0.29;56.91;100962.66;5538935;32;34765;-86
2022/01/21 13:29:42;;;;;;;6.20;2.70;;;;;;;0.66;56.54;100955.72;5546107;32;34213;-86
2022/01/21 13:32:47;;;;;;;4.10;2.37;;;;;;;0.69;56.21;100959.22;5559628;32;33849;-86
2022/01/21 13:35:50;;;;;;;10.40;3.05;;;;;;;0.48;56.14;100966.13;5562676;32;32772;-85
2022/01/21 13:39:15;;;;;;;8.07;2.15;;;;;;;0.38;56.20;100962.66;5555149;32;33915;-86
2022/01/21 13:42:23;;;;;;;6.53;1.98;;;;;;;0.37;56.25;100959.19;5555395;32;35302;-86
2022/01/21 13:45:25;;;;;;;5.93;2.40;;;;;;;0.34;55.66;100984.38;5554202;32;34146;-86
2022/01/21 13:48:35;;;;;;;6.60;2.28;;;;;;;0.19;56.41;100959.16;5554035;32;33693;-86
2022/01/21 13:51:51;;;;;;;6.28;2.00;;;;;;;0.13;57.15;100962.59;5545051;32;33843;-90
2022/01/21 13:54:54;;;;;;;10.10;2.40;;;;;;;0.31;57.12;100960.91;5542380;32;35246;-86
2022/01/21 13:57:59;;;;;;;4.47;2.35;;;;;;;0.12;57.38;100945.19;5544674;32;33646;-87
2022/01/21 14:01:08;;;;;;;4.75;1.95;;;;;;;0.03;58.11;100961.69;5550775;32;33926;-85
2022/01/21 14:04:11;;;;;;;5.65;2.12;;;;;;;0.20;57.40;100947.84;5552491;32;34089;-86
2022/01/21 14:07:33;;;;;;;7.18;2.45;;;;;;;0.07;57.90;100960.84;5553676;32;34255;-86
2022/01/21 14:10:36;;;;;;;6.47;2.70;;;;;;;-0.11;57.64;100948.59;5554612;32;33938;-85
2022/01/21 14:13:45;;;;;;;6.12;2.70;;;;;;;-0.05;57.03;100938.19;5555277;32;33966;-85
2022/01/21 14:16:54;;;;;;;7.87;2.65;;;;;;;-0.12;57.68;100939.03;5554277;32;34174;-85
2022/01/21 14:20:00;;;;;;;5.62;2.33;;;;;;;-0.06;57.27;100930.34;5554401;32;35281;-85
2022/01/21 14:23:04;;;;;;;5.68;2.40;;;;;;;-0.27;57.04;100934.63;5554153;32;34151;-85
2022/01/21 14:26:10;;;;;;;5.18;2.50;;;;;;;-0.30;57.09;100922.44;5546406;32;34726;-85
2022/01/21 14:29:13;;;;;;;7.65;2.78;;;;;;;-0.33;57.34;100918.97;5552232;32;33849;-85
2022/01/21 14:32:38;;;;;;;5.22;2.30;;;;;;;-0.39;57.18;100925.03;5557500;32;34184;-86
2022/01/21 14:35:45;;;;;;;9.80;2.47;;;;;;;-0.52;58.38;100939.72;5555939;32;34052;-86
2022/01/21 14:39:08;;;;;;;4.68;2.20;;;;;;;-0.54;58.10;100941.47;5551996;32;34039;-85
2022/01/21 14:42:18;;;;;;;6.12;2.35;;;;;;;-0.54;58.41;100951.87;5541349;32;34641;-86
2022/01/21 14:45:21;;;;;;;9.18;2.87;;;;;;;-0.56;58.55;100954.47;5558377;32;34951;-85
2022/01/21 14:48:26;;;;;;;5.40;2.62;;;;;;;-0.61;58.51;100950.97;5560755;32;34388;-90
2022/01/21 14:55:37;;;;;;;6.00;2.40;;;;;;;-0.64;57.71;100960.50;5523012;32;35255;-86
2022/01/21 14:58:41;;;;;;;6.45;2.37;;;;;;;-0.63;56.38;100951.81;5548297;32;35161;-86
2022/01/21 15:02:05;;;;;;;3.55;2.47;;;;;;;-0.65;55.26;100963.97;5547297;32;33488;-87
2022/01/21 15:05:11;;;;;;;5.85;2.03;;;;;;;-0.61;55.15;100964.00;5540327;32;34378;-86
2022/01/21 15:08:32;;;;;;;6.72;2.60;;;;;;;-0.69;55.26;100974.38;5542891;32;33676;-86
2022/01/21 15:11:56;;;;;;;11.05;3.08;;;;;;;-0.65;55.00;100971.78;5539335;32;34468;-86
2022/01/21 15:14:59;;;;;;;5.95;2.35;;;;;;;-0.73;55.47;100979.56;5537800;32;34654;-86
2022/01/21 15:18:03;;;;;;;10.02;2.15;;;;;;;-0.81;55.23;100974.28;5530548;32;35268;-86
2022/01/21 15:21:27;;;;;;;5.97;2.85;;;;;;;-0.84;54.97;100982.94;5521560;32;34992;-86
2022/01/21 15:24:30;;;;;;;5.95;2.37;;;;;;;-0.99;56.00;100977.62;5521367;32;34413;-87
2022/01/21 15:27:33;;;;;;;7.37;2.30;;;;;;;-0.84;55.27;100987.31;5527843;32;33866;-86
2022/01/21 15:30:36;;;;;;;8.10;2.35;;;;;;;-0.73;55.64;100988.25;5528925;32;35514;-86
2022/01/21 15:33:40;;;;;;;5.35;2.08;;;;;;;-0.87;56.40;100982.06;5520107;32;33930;-86
2022/01/21 15:36:44;;;;;;;6.72;2.58;;;;;;;-0.85;55.59;100986.41;5520432;32;34454;-86
2022/01/21 15:39:47;;;;;;;5.15;2.20;;;;;;;-1.04;56.00;100989.75;5525638;32;34170;-87
2022/01/21 15:42:50;;;;;;;5.75;2.37;;;;;;;-1.17;56.52;100987.03;5527812;32;34179;-87
2022/01/21 15:45:58;;;;;;;5.37;2.10;;;;;;;-1.29;57.53;100981.72;5526524;32;35259;-87
2022/01/21 15:49:02;;;;;;;4.85;2.08;;;;;;;-1.29;57.47;100974.81;5519945;32;35692;-86
2022/01/21 15:52:07;;;;;;;5.93;1.98;;;;;;;-1.29;57.41;100974.81;5518943;32;34196;-86
2022/01/21 15:55:10;;;;;;;4.57;1.75;;;;;;;-1.18;57.27;100967.06;5538843;32;34214;-86
2022/01/21 15:58:13;;;;;;;7.72;2.62;;;;;;;-1.26;56.80;100964.41;5538117;32;34732;-86
2022/01/21 16:01:16;;;;;;;8.73;2.22;;;;;;;-1.25;56.50;100966.13;5528370;32;35494;-87
2022/01/21 16:04:19;;;;;;;6.03;2.50;;;;;;;-1.37;56.80;100963.44;5518840;32;33826;-86
2022/01/21 16:07:22;;;;;;;6.25;2.30;;;;;;;-1.38;56.87;100970.38;5544363;32;34056;-86
2022/01/21 16:10:26;;;;;;;3.70;1.85;;;;;;;-1.34;56.58;100973.00;5554243;32;34683;-86
2022/01/21 16:13:44;;;;;;;7.68;1.87;;;;;;;-1.38;56.55;100978.19;5557381;32;34432;-86
2022/01/21 16:16:48;;;;;;;8.48;2.03;;;;;;;-1.44;55.95;100977.25;5557948;32;33984;-86
2022/01/21 16:19:53;;;;;;;5.87;2.33;;;;;;;-1.50;55.65;100978.94;5557436;32;33732;-86
2022/01/21 16:22:56;;;;;;;5.25;2.00;;;;;;;-1.41;55.42;100979.91;5557252;32;33904;-86
2022/01/21 16:26:17;;;;;;;5.40;2.60;;;;;;;-1.55;55.36;100982.34;5557494;32;34098;-86
2022/01/21 16:29:20;;;;;;;4.57;2.10;;;;;;;-1.56;55.71;100985.81;5557975;32;34065;-86
2022/01/21 16:32:22;;;;;;;6.43;2.40;;;;;;;-1.64;55.61;100988.34;5558041;32;34256;-86
